createdAt,value
2017-09-28T00:00:51.006Z,16.60
2017-09-28T00:03:18.493Z,16.50
2017-09-28T00:05:47.476Z,16.60
2017-09-28T00:08:15.042Z,16.60
2017-09-28T00:10:42.522Z,16.60
2017-09-28T00:13:10.779Z,16.60
2017-09-28T00:15:38.245Z,16.60
2017-09-28T00:18:05.793Z,16.60
2017-09-28T00:20:33.353Z,16.60
2017-09-28T00:23:02.326Z,16.60
2017-09-28T00:25:29.810Z,16.60
2017-09-28T00:27:58.052Z,16.60
2017-09-28T00:30:25.525Z,16.60
2017-09-28T00:32:53.044Z,16.60
2017-09-28T00:35:20.555Z,16.70
2017-09-28T00:37:48.780Z,16.70
2017-09-28T00:40:16.276Z,16.70
2017-09-28T00:42:43.790Z,16.70
2017-09-28T00:45:11.257Z,16.70
2017-09-28T00:47:38.722Z,16.70
2017-09-28T00:50:06.206Z,16.60
2017-09-28T00:52:33.717Z,16.70
2017-09-28T00:55:01.181Z,16.70
2017-09-28T00:57:28.694Z,16.70
2017-09-28T00:59:56.922Z,16.70
2017-09-28T01:02:24.394Z,16.60
2017-09-28T01:04:51.884Z,16.60
2017-09-28T01:07:20.154Z,16.60
2017-09-28T01:09:47.701Z,16.50
2017-09-28T01:12:15.265Z,16.50
2017-09-28T01:14:42.742Z,16.50
2017-09-28T01:17:10.996Z,16.50
2017-09-28T01:19:39.266Z,16.50
2017-09-28T01:22:06.834Z,16.40
2017-09-28T01:24:35.111Z,16.50
2017-09-28T01:27:03.435Z,16.50
2017-09-28T01:29:30.896Z,16.40
2017-09-28T01:31:58.472Z,16.50
2017-09-28T01:34:25.965Z,16.50
2017-09-28T01:36:54.234Z,16.50
2017-09-28T01:39:22.156Z,16.50
2017-09-28T01:41:49.652Z,16.50
2017-09-28T01:44:17.118Z,16.50
2017-09-28T01:46:44.595Z,16.50
2017-09-28T01:49:12.076Z,16.40
2017-09-28T01:51:39.590Z,16.40
2017-09-28T01:54:07.865Z,16.20
2017-09-28T01:56:36.181Z,16.20
2017-09-28T01:59:03.689Z,16.10
2017-09-28T02:01:31.203Z,16.20
2017-09-28T02:03:58.673Z,16.30
2017-09-28T02:06:26.141Z,16.30
2017-09-28T02:08:53.667Z,16.30
2017-09-28T02:11:21.151Z,16.30
2017-09-28T02:13:48.625Z,16.30
2017-09-28T02:16:16.224Z,16.30
2017-09-28T02:18:43.704Z,16.30
2017-09-28T02:21:11.205Z,16.20
2017-09-28T02:23:38.690Z,16.20
2017-09-28T02:26:06.995Z,16.10
2017-09-28T02:28:34.496Z,16.10
2017-09-28T02:31:01.972Z,16.10
2017-09-28T02:33:30.226Z,16.10
2017-09-28T02:35:57.728Z,16.00
2017-09-28T02:38:25.507Z,16.10
2017-09-28T02:40:53.780Z,16.00
2017-09-28T02:43:21.258Z,16.00
2017-09-28T02:45:48.735Z,16.00
2017-09-28T02:48:16.222Z,16.00
2017-09-28T02:50:44.458Z,16.00
2017-09-28T02:53:12.039Z,16.00
2017-09-28T02:55:39.598Z,16.00
2017-09-28T02:58:07.139Z,15.90
2017-09-28T03:00:34.712Z,15.90
2017-09-28T03:03:02.185Z,15.80
2017-09-28T03:05:30.489Z,15.70
2017-09-28T03:07:57.961Z,15.60
2017-09-28T03:10:25.457Z,15.60
2017-09-28T03:12:52.969Z,15.70
2017-09-28T03:15:20.504Z,15.70
2017-09-28T03:17:47.980Z,15.60
2017-09-28T03:20:15.643Z,15.60
2017-09-28T03:22:43.113Z,15.60
2017-09-28T03:25:10.617Z,15.60
2017-09-28T03:27:39.077Z,15.70
2017-09-28T03:30:07.372Z,15.70
2017-09-28T03:32:35.646Z,15.70
2017-09-28T03:35:03.912Z,15.60
2017-09-28T03:37:31.385Z,15.60
2017-09-28T03:39:59.649Z,15.50
2017-09-28T03:42:27.200Z,15.40
2017-09-28T03:44:54.689Z,15.50
2017-09-28T03:47:22.940Z,15.40
2017-09-28T03:49:50.415Z,15.40
2017-09-28T03:52:18.665Z,15.40
2017-09-28T03:54:46.225Z,15.40
2017-09-28T03:57:13.697Z,15.40
2017-09-28T03:59:41.960Z,15.50
2017-09-28T04:02:09.425Z,15.40
2017-09-28T04:04:37.665Z,15.50
2017-09-28T04:07:05.168Z,15.50
2017-09-28T04:09:33.408Z,15.50
2017-09-28T04:12:00.975Z,15.40
2017-09-28T04:14:28.444Z,15.40
2017-09-28T04:16:56.711Z,15.40
2017-09-28T04:19:24.173Z,15.40
2017-09-28T04:21:52.416Z,15.40
2017-09-28T04:24:19.896Z,15.40
2017-09-28T04:26:47.377Z,15.40
2017-09-28T04:29:15.650Z,15.40
2017-09-28T04:31:43.927Z,15.20
2017-09-28T04:34:12.166Z,15.30
2017-09-28T04:36:39.652Z,15.20
2017-09-28T04:39:07.897Z,15.30
2017-09-28T04:41:35.398Z,15.30
2017-09-28T04:44:02.870Z,15.30
2017-09-28T04:46:30.330Z,15.20
2017-09-28T04:48:57.898Z,15.20
2017-09-28T04:51:25.415Z,15.20
2017-09-28T04:53:53.676Z,15.20
2017-09-28T04:56:21.145Z,15.20
2017-09-28T04:58:48.651Z,15.30
2017-09-28T05:01:16.210Z,15.20
2017-09-28T05:03:43.697Z,15.20
2017-09-28T05:06:11.173Z,15.20
2017-09-28T05:08:38.782Z,15.20
2017-09-28T05:11:06.245Z,15.20
2017-09-28T05:13:33.896Z,15.10
2017-09-28T05:16:01.456Z,15.10
2017-09-28T05:18:28.924Z,15.10
2017-09-28T05:20:56.415Z,15.00
2017-09-28T05:23:23.978Z,15.10
2017-09-28T05:25:51.448Z,15.10
2017-09-28T05:28:19.685Z,15.00
2017-09-28T05:30:47.175Z,14.90
2017-09-28T05:33:15.427Z,14.90
2017-09-28T05:35:42.908Z,14.90
2017-09-28T05:38:11.137Z,15.00
2017-09-28T05:40:38.628Z,14.90
2017-09-28T05:43:06.085Z,14.90
2017-09-28T05:45:33.556Z,15.00
2017-09-28T05:48:01.800Z,14.90
2017-09-28T05:50:29.298Z,14.90
2017-09-28T05:52:57.542Z,14.90
2017-09-28T05:55:25.009Z,14.90
2017-09-28T05:57:52.486Z,15.00
2017-09-28T06:00:20.720Z,14.90
2017-09-28T06:02:48.200Z,14.80
2017-09-28T06:05:16.438Z,14.90
2017-09-28T06:07:43.917Z,14.80
2017-09-28T06:10:11.402Z,14.90
2017-09-28T06:12:39.645Z,14.90
2017-09-28T06:15:07.113Z,14.80
2017-09-28T06:17:34.608Z,14.80
2017-09-28T06:20:02.064Z,14.90
2017-09-28T06:22:29.551Z,14.80
2017-09-28T06:24:57.025Z,14.80
2017-09-28T06:27:24.498Z,14.80
2017-09-28T06:29:51.986Z,14.80
2017-09-28T06:32:19.458Z,14.80
2017-09-28T06:34:46.930Z,14.80
2017-09-28T06:37:14.409Z,14.90
2017-09-28T06:39:41.885Z,15.00
2017-09-28T06:42:09.348Z,15.10
2017-09-28T06:44:37.592Z,15.20
2017-09-28T06:47:05.569Z,15.20
2017-09-28T06:49:33.041Z,15.20
2017-09-28T06:52:00.508Z,15.20
2017-09-28T06:54:28.765Z,15.20
2017-09-28T06:56:56.243Z,15.20
2017-09-28T06:59:24.487Z,15.20
2017-09-28T07:01:51.964Z,15.10
2017-09-28T07:04:19.445Z,15.30
2017-09-28T07:06:46.912Z,15.30
2017-09-28T07:09:14.482Z,15.40
2017-09-28T07:11:41.984Z,15.40
2017-09-28T07:14:09.468Z,15.30
2017-09-28T07:16:37.716Z,15.40
2017-09-28T07:19:05.186Z,15.40
2017-09-28T07:21:32.686Z,15.40
2017-09-28T07:24:00.184Z,15.40
2017-09-28T07:26:28.146Z,15.40
2017-09-28T07:28:55.736Z,15.60
2017-09-28T07:31:23.981Z,15.70
2017-09-28T07:33:51.459Z,15.70
2017-09-28T07:36:19.109Z,15.70
2017-09-28T07:38:46.604Z,15.70
2017-09-28T07:41:14.133Z,15.80
2017-09-28T07:43:41.682Z,15.80
2017-09-28T07:46:09.195Z,15.80
2017-09-28T07:48:36.671Z,15.90
2017-09-28T07:51:04.151Z,15.90
2017-09-28T07:53:31.709Z,16.00
2017-09-28T07:55:59.274Z,16.10
2017-09-28T07:58:28.257Z,16.30
2017-09-28T08:00:57.416Z,16.30
2017-09-28T08:03:24.904Z,16.30
2017-09-28T08:05:52.373Z,16.30
2017-09-28T08:08:19.928Z,16.30
2017-09-28T08:10:47.514Z,16.40
2017-09-28T08:13:15.884Z,16.60
2017-09-28T08:15:44.205Z,16.70
2017-09-28T08:18:11.805Z,16.60
2017-09-28T08:20:39.291Z,16.90
2017-09-28T08:23:07.637Z,17.00
2017-09-28T08:25:36.076Z,16.90
2017-09-28T08:28:04.408Z,16.90
2017-09-28T08:30:32.657Z,17.00
2017-09-28T08:33:00.121Z,17.00
2017-09-28T08:35:27.644Z,17.10
2017-09-28T08:37:55.617Z,17.20
2017-09-28T08:40:23.580Z,17.30
2017-09-28T08:42:51.088Z,17.30
2017-09-28T08:45:18.594Z,17.50
2017-09-28T08:47:46.116Z,17.40
2017-09-28T08:50:14.340Z,17.80
2017-09-28T08:52:41.816Z,17.70
2017-09-28T08:55:09.380Z,18.10
2017-09-28T08:57:36.844Z,18.50
2017-09-28T09:00:04.336Z,18.40
2017-09-28T09:02:32.578Z,18.40
2017-09-28T09:05:00.058Z,18.40
2017-09-28T09:07:27.534Z,18.50
2017-09-28T09:09:54.996Z,18.50
2017-09-28T09:12:22.514Z,18.70
2017-09-28T09:14:50.074Z,18.70
2017-09-28T09:17:17.548Z,18.70
2017-09-28T09:19:45.790Z,18.80
2017-09-28T09:22:13.263Z,18.80
2017-09-28T09:24:40.751Z,18.70
2017-09-28T09:27:08.218Z,18.70
2017-09-28T09:29:35.681Z,18.70
2017-09-28T09:32:03.158Z,18.90
2017-09-28T09:34:30.627Z,19.20
2017-09-28T09:36:58.194Z,19.30
2017-09-28T09:39:25.667Z,19.40
2017-09-28T09:41:53.933Z,19.60
2017-09-28T09:44:21.490Z,19.50
2017-09-28T09:46:49.099Z,19.50
2017-09-28T09:49:16.581Z,19.40
2017-09-28T09:51:44.042Z,19.50
2017-09-28T09:54:11.532Z,19.40
2017-09-28T09:56:38.995Z,19.60
2017-09-28T09:59:07.220Z,19.80
2017-09-28T10:01:34.681Z,19.70
2017-09-28T10:04:02.150Z,19.80
2017-09-28T10:06:29.755Z,19.80
2017-09-28T10:08:58.967Z,19.90
2017-09-28T10:11:31.349Z,20.30
2017-09-28T10:14:01.009Z,20.50
2017-09-28T10:16:28.489Z,20.60
2017-09-28T10:18:55.954Z,20.70
2017-09-28T10:21:23.424Z,20.80
2017-09-28T10:23:50.885Z,20.90
2017-09-28T10:26:18.349Z,20.70
2017-09-28T10:28:45.823Z,20.60
2017-09-28T10:31:13.293Z,20.50
2017-09-28T10:33:40.848Z,20.60
2017-09-28T10:36:08.345Z,20.90
2017-09-28T10:38:35.805Z,20.90
2017-09-28T10:41:03.276Z,20.80
2017-09-28T10:43:30.741Z,20.70
2017-09-28T10:45:58.204Z,20.50
2017-09-28T10:48:25.687Z,20.30
2017-09-28T10:50:53.290Z,20.40
2017-09-28T10:53:20.765Z,20.60
2017-09-28T10:55:48.263Z,20.70
2017-09-28T10:58:15.724Z,20.70
2017-09-28T11:00:43.208Z,20.70
2017-09-28T11:03:11.458Z,20.60
2017-09-28T11:05:38.914Z,20.50
2017-09-28T11:08:07.182Z,20.80
2017-09-28T11:10:34.645Z,20.80
2017-09-28T11:13:02.143Z,21.00
2017-09-28T11:15:29.667Z,21.30
2017-09-28T11:17:58.645Z,21.60
2017-09-28T11:20:26.117Z,21.60
2017-09-28T11:22:54.360Z,21.70
2017-09-28T11:25:21.822Z,21.70
2017-09-28T11:27:49.291Z,21.60
2017-09-28T11:30:16.857Z,21.40
2017-09-28T11:32:44.323Z,21.50
2017-09-28T11:35:12.565Z,22.20
2017-09-28T11:37:40.034Z,22.20
2017-09-28T11:40:07.598Z,22.50
2017-09-28T11:42:35.066Z,22.90
2017-09-28T11:45:02.547Z,23.10
2017-09-28T11:47:30.787Z,23.80
2017-09-28T11:49:58.259Z,23.80
2017-09-28T11:52:25.717Z,24.20
2017-09-28T11:54:53.190Z,24.50
2017-09-28T11:57:21.426Z,24.70
2017-09-28T11:59:48.908Z,24.60
2017-09-28T12:02:17.150Z,24.20
2017-09-28T12:04:44.609Z,24.10
2017-09-28T12:07:12.090Z,23.60
2017-09-28T12:09:40.329Z,23.00
2017-09-28T12:12:07.789Z,23.00
2017-09-28T12:14:35.253Z,23.00
2017-09-28T12:17:02.826Z,23.00
2017-09-28T12:19:30.293Z,23.10
2017-09-28T12:21:57.766Z,23.20
2017-09-28T12:24:25.996Z,23.30
2017-09-28T12:26:53.481Z,23.30
2017-09-28T12:29:21.030Z,23.30
2017-09-28T12:31:48.587Z,23.10
2017-09-28T12:34:16.068Z,23.00
2017-09-28T12:36:44.315Z,22.80
2017-09-28T12:39:12.653Z,22.80
2017-09-28T12:41:40.160Z,22.70
2017-09-28T12:44:07.631Z,22.40
2017-09-28T12:46:35.097Z,22.30
2017-09-28T12:49:03.335Z,22.20
2017-09-28T12:51:30.800Z,22.10
2017-09-28T12:53:58.268Z,22.20
2017-09-28T12:56:25.725Z,22.20
2017-09-28T12:58:53.278Z,22.10
2017-09-28T13:01:21.527Z,22.00
2017-09-28T13:03:49.031Z,21.90
2017-09-28T13:06:16.491Z,22.00
2017-09-28T13:08:44.738Z,22.10
2017-09-28T13:11:12.257Z,22.10
2017-09-28T13:13:39.759Z,22.10
2017-09-28T13:16:07.223Z,21.90
2017-09-28T13:18:35.466Z,21.50
2017-09-28T13:21:02.940Z,21.50
2017-09-28T13:23:30.401Z,21.40
2017-09-28T13:25:57.930Z,21.40
2017-09-28T13:28:25.392Z,21.30
2017-09-28T13:30:52.974Z,21.30
2017-09-28T13:33:20.432Z,21.20
2017-09-28T13:35:47.902Z,21.10
2017-09-28T13:38:16.145Z,21.20
2017-09-28T13:40:43.634Z,21.10
2017-09-28T13:43:11.869Z,21.10
2017-09-28T13:45:39.341Z,21.00
2017-09-28T13:48:06.805Z,21.00
2017-09-28T13:50:34.276Z,21.10
2017-09-28T13:53:02.508Z,21.20
2017-09-28T13:55:29.969Z,21.20
2017-09-28T13:57:57.441Z,21.20
2017-09-28T14:00:24.906Z,21.20
2017-09-28T14:02:52.769Z,21.30
2017-09-28T14:05:20.225Z,21.40
2017-09-28T14:07:47.704Z,21.40
2017-09-28T14:10:15.956Z,21.30
2017-09-28T14:12:43.472Z,21.20
2017-09-28T14:15:10.930Z,21.30
2017-09-28T14:17:38.389Z,21.30
2017-09-28T14:20:05.863Z,21.30
2017-09-28T14:22:33.385Z,21.30
2017-09-28T14:25:00.863Z,21.40
2017-09-28T14:27:28.334Z,21.60
2017-09-28T14:29:55.810Z,21.80
2017-09-28T14:32:23.309Z,22.10
2017-09-28T14:34:50.826Z,22.20
2017-09-28T14:37:18.805Z,22.30
2017-09-28T14:39:46.361Z,22.50
2017-09-28T14:42:13.917Z,22.70
2017-09-28T14:44:41.568Z,22.80
2017-09-28T14:47:09.093Z,22.80
2017-09-28T14:49:36.557Z,22.80
2017-09-28T14:52:04.029Z,22.90
2017-09-28T14:54:31.605Z,22.90
2017-09-28T14:56:59.166Z,22.80
2017-09-28T14:59:26.743Z,22.70
2017-09-28T15:01:54.284Z,22.70
2017-09-28T15:04:21.758Z,22.90
2017-09-28T15:06:50.072Z,23.20
2017-09-28T15:09:17.533Z,23.10
2017-09-28T15:11:45.014Z,23.10
2017-09-28T15:14:12.490Z,22.90
2017-09-28T15:16:39.956Z,22.90
2017-09-28T15:19:07.498Z,22.90
2017-09-28T15:21:34.983Z,22.70
2017-09-28T15:24:03.214Z,22.00
2017-09-28T15:26:30.672Z,22.00
2017-09-28T15:28:58.137Z,21.70
2017-09-28T15:31:25.612Z,21.60
2017-09-28T15:33:53.167Z,21.50
2017-09-28T15:36:20.734Z,21.30
2017-09-28T15:38:48.216Z,21.20
2017-09-28T15:41:15.668Z,21.10
2017-09-28T15:43:43.312Z,21.00
2017-09-28T15:46:11.564Z,20.70
2017-09-28T15:48:39.124Z,20.70
2017-09-28T15:51:06.685Z,20.70
2017-09-28T15:53:34.174Z,20.60
2017-09-28T15:56:02.400Z,20.50
2017-09-28T15:58:29.864Z,20.50
2017-09-28T16:00:57.326Z,20.50
2017-09-28T16:03:24.820Z,20.40
2017-09-28T16:05:53.190Z,20.40
2017-09-28T16:08:21.416Z,20.30
2017-09-28T16:10:48.881Z,20.30
2017-09-28T16:13:16.342Z,20.30
2017-09-28T16:15:43.815Z,20.30
2017-09-28T16:18:11.273Z,20.20
2017-09-28T16:20:38.820Z,20.20
2017-09-28T16:23:06.280Z,20.20
2017-09-28T16:25:33.759Z,20.10
2017-09-28T16:28:02.006Z,20.00
2017-09-28T16:30:29.637Z,20.00
2017-09-28T16:32:57.098Z,20.00
2017-09-28T16:35:24.678Z,19.90
2017-09-28T16:37:52.141Z,19.90
2017-09-28T16:40:19.622Z,19.80
2017-09-28T16:42:47.891Z,19.80
2017-09-28T16:45:15.428Z,19.80
2017-09-28T16:47:42.893Z,19.70
2017-09-28T16:50:10.383Z,19.60
2017-09-28T16:52:37.876Z,19.60
2017-09-28T16:55:05.424Z,19.50
2017-09-28T16:57:32.902Z,19.50
2017-09-28T17:00:00.371Z,19.40
2017-09-28T17:02:27.862Z,19.40
2017-09-28T17:04:56.119Z,19.20
2017-09-28T17:07:23.580Z,19.20
2017-09-28T17:09:51.818Z,19.10
2017-09-28T17:12:19.305Z,19.10
2017-09-28T17:14:46.774Z,19.10
2017-09-28T17:17:15.015Z,19.10
2017-09-28T17:19:43.242Z,19.10
2017-09-28T17:22:11.498Z,19.00
2017-09-28T17:24:39.765Z,19.00
2017-09-28T17:27:07.317Z,18.90
2017-09-28T17:29:34.781Z,18.90
2017-09-28T17:32:02.238Z,18.90
2017-09-28T17:34:29.845Z,18.90
2017-09-28T17:36:57.305Z,18.80
2017-09-28T17:39:24.864Z,18.80
2017-09-28T17:41:52.322Z,18.80
2017-09-28T17:44:19.788Z,18.80
2017-09-28T17:46:47.271Z,18.80
2017-09-28T17:49:14.750Z,18.80
2017-09-28T17:51:43.088Z,18.80
2017-09-28T17:54:10.564Z,18.80
2017-09-28T17:56:39.553Z,18.70
2017-09-28T17:59:07.403Z,18.70
2017-09-28T18:01:35.743Z,18.80
2017-09-28T18:04:03.250Z,18.70
2017-09-28T18:06:30.714Z,18.80
2017-09-28T18:08:59.681Z,18.70
2017-09-28T18:11:27.216Z,18.70
2017-09-28T18:13:54.695Z,18.70
2017-09-28T18:16:22.172Z,18.60
2017-09-28T18:18:49.624Z,18.60
2017-09-28T18:21:18.716Z,18.60
2017-09-28T18:23:46.345Z,18.50
2017-09-28T18:26:13.805Z,18.60
2017-09-28T18:28:41.270Z,18.60
2017-09-28T18:31:08.762Z,18.60
2017-09-28T18:33:36.273Z,18.60
2017-09-28T18:36:03.745Z,18.60
2017-09-28T18:38:31.205Z,18.60
2017-09-28T18:40:58.676Z,18.60
2017-09-28T18:43:26.185Z,18.50
2017-09-28T18:45:53.729Z,18.50
2017-09-28T18:48:21.968Z,18.50
2017-09-28T18:50:49.441Z,18.40
2017-09-28T18:53:16.905Z,18.50
2017-09-28T18:55:45.149Z,18.40
2017-09-28T18:58:12.670Z,18.40
2017-09-28T19:00:40.177Z,18.50
2017-09-28T19:03:07.645Z,18.40
2017-09-28T19:05:35.118Z,18.40
2017-09-28T19:08:03.352Z,18.40
2017-09-28T19:10:30.820Z,18.40
2017-09-28T19:12:58.293Z,18.40
2017-09-28T19:15:25.757Z,18.40
2017-09-28T19:17:54.038Z,18.30
2017-09-28T19:20:22.306Z,18.30
2017-09-28T19:22:50.532Z,18.30
2017-09-28T19:25:18.026Z,18.30
2017-09-28T19:27:45.481Z,18.30
2017-09-28T19:30:12.994Z,18.30
2017-09-28T19:32:40.550Z,18.30
2017-09-28T19:35:08.017Z,18.30
2017-09-28T19:37:35.482Z,18.20
2017-09-28T19:40:02.949Z,18.20
2017-09-28T19:42:30.419Z,18.20
2017-09-28T19:44:57.913Z,18.20
2017-09-28T19:47:26.141Z,18.10
2017-09-28T19:49:53.612Z,18.10
2017-09-28T19:52:21.100Z,18.10
2017-09-28T19:54:48.593Z,18.20
2017-09-28T19:57:16.073Z,18.10
2017-09-28T19:59:43.537Z,18.20
2017-09-28T20:02:11.772Z,18.20
2017-09-28T20:04:39.247Z,18.10
2017-09-28T20:07:06.739Z,18.20
2017-09-28T20:09:34.981Z,18.20
2017-09-28T20:12:02.626Z,18.10
2017-09-28T20:14:30.145Z,18.20
2017-09-28T20:16:58.380Z,18.10
2017-09-28T20:19:25.860Z,18.00
2017-09-28T20:21:53.328Z,18.10
2017-09-28T20:24:21.566Z,18.10
2017-09-28T20:26:49.053Z,18.00
2017-09-28T20:29:16.513Z,18.00
2017-09-28T20:31:44.750Z,18.00
2017-09-28T20:34:12.238Z,17.90
2017-09-28T20:36:39.793Z,18.00
2017-09-28T20:39:07.269Z,18.00
2017-09-28T20:41:35.508Z,18.00
2017-09-28T20:44:02.975Z,17.90
2017-09-28T20:46:30.439Z,18.00
2017-09-28T20:48:57.924Z,18.00
2017-09-28T20:51:25.396Z,18.00
2017-09-28T20:53:52.871Z,18.00
2017-09-28T20:56:20.333Z,17.90
2017-09-28T20:58:47.816Z,18.00
2017-09-28T21:01:15.281Z,18.00
2017-09-28T21:03:42.835Z,18.00
2017-09-28T21:06:11.071Z,18.00
2017-09-28T21:08:38.532Z,17.90
2017-09-28T21:11:06.082Z,17.90
2017-09-28T21:13:34.399Z,18.00
2017-09-28T21:16:01.955Z,17.90
2017-09-28T21:18:29.411Z,18.00
2017-09-28T21:20:56.895Z,18.00
2017-09-28T21:23:25.140Z,18.00
2017-09-28T21:25:52.627Z,17.90
2017-09-28T21:28:20.863Z,18.00
2017-09-28T21:30:48.341Z,18.00
2017-09-28T21:33:15.818Z,18.00
2017-09-28T21:35:44.070Z,18.00
2017-09-28T21:38:11.537Z,17.90
2017-09-28T21:40:39.782Z,18.00
2017-09-28T21:43:07.248Z,17.90
2017-09-28T21:45:34.815Z,18.00
2017-09-28T21:48:02.373Z,18.00
2017-09-28T21:50:29.840Z,17.90
2017-09-28T21:52:57.314Z,17.90
2017-09-28T21:55:25.544Z,17.90
2017-09-28T21:57:53.013Z,17.80
2017-09-28T22:00:20.482Z,17.90
2017-09-28T22:02:48.037Z,17.90
2017-09-28T22:05:17.006Z,17.80
2017-09-28T22:07:44.484Z,17.80
2017-09-28T22:10:12.036Z,17.80
2017-09-28T22:12:39.592Z,17.80
2017-09-28T22:15:07.168Z,17.80
2017-09-28T22:17:35.432Z,17.70
2017-09-28T22:20:02.885Z,17.70
2017-09-28T22:22:30.445Z,17.70
2017-09-28T22:24:58.063Z,17.70
2017-09-28T22:27:25.532Z,17.70
2017-09-28T22:29:53.019Z,17.70
2017-09-28T22:32:20.482Z,17.70
2017-09-28T22:34:48.713Z,17.60
2017-09-28T22:37:16.205Z,17.60
2017-09-28T22:39:43.764Z,17.60
2017-09-28T22:42:11.216Z,17.60
2017-09-28T22:44:38.790Z,17.50
2017-09-28T22:47:07.025Z,17.40
2017-09-28T22:49:34.512Z,17.40
2017-09-28T22:52:01.979Z,17.40
2017-09-28T22:54:30.241Z,17.30
2017-09-28T22:56:57.706Z,17.30
2017-09-28T22:59:25.207Z,17.20
2017-09-28T23:01:52.680Z,17.20
2017-09-28T23:04:20.176Z,17.20
2017-09-28T23:06:48.441Z,17.20
2017-09-28T23:09:16.006Z,17.10
2017-09-28T23:11:44.246Z,17.20
2017-09-28T23:14:11.754Z,17.10
2017-09-28T23:16:39.305Z,17.10
2017-09-28T23:19:06.774Z,17.20
2017-09-28T23:21:34.251Z,17.20
2017-09-28T23:24:01.769Z,17.10
2017-09-28T23:26:29.244Z,17.10
2017-09-28T23:28:56.709Z,17.10
2017-09-28T23:31:25.018Z,17.10
2017-09-28T23:33:52.474Z,17.10
2017-09-28T23:36:19.973Z,17.20
2017-09-28T23:38:47.529Z,17.20
2017-09-28T23:41:15.095Z,17.10
2017-09-28T23:43:42.565Z,17.10
2017-09-28T23:46:10.027Z,17.10
2017-09-28T23:48:38.277Z,17.10
2017-09-28T23:51:05.733Z,17.10
2017-09-28T23:53:33.196Z,17.20
2017-09-28T23:56:00.759Z,17.10
2017-09-28T23:58:28.313Z,17.20
